createdAt,value
2023-03-31T00:00:31.360Z,1.70
2023-03-31T00:02:37.312Z,2.00
2023-03-31T00:04:53.258Z,2.40
2023-03-31T00:06:58.701Z,2.42
2023-03-31T00:09:03.736Z,2.17
2023-03-31T00:11:11.955Z,1.88
2023-03-31T00:13:17.650Z,2.25
2023-03-31T00:15:23.605Z,2.40
2023-03-31T00:17:28.652Z,2.45
2023-03-31T00:19:33.939Z,2.63
2023-03-31T00:21:42.944Z,1.80
2023-03-31T00:23:47.975Z,2.72
2023-03-31T00:25:53.004Z,2.00
2023-03-31T00:27:58.191Z,1.90
2023-03-31T00:30:03.248Z,2.38
2023-03-31T00:32:08.762Z,1.80
2023-03-31T00:34:13.965Z,1.65
2023-03-31T00:36:21.785Z,1.73
2023-03-31T00:38:30.075Z,2.50
2023-03-31T00:40:35.247Z,3.10
2023-03-31T00:42:44.041Z,1.83
2023-03-31T00:45:31.083Z,2.15
2023-03-31T00:47:37.400Z,2.38
2023-03-31T00:49:46.806Z,1.75
2023-03-31T00:51:54.398Z,2.10
2023-03-31T00:54:06.228Z,1.90
2023-03-31T00:56:17.501Z,2.03
2023-03-31T00:58:28.476Z,2.60
2023-03-31T01:00:33.937Z,2.50
2023-03-31T01:02:41.858Z,2.42
2023-03-31T01:04:54.896Z,2.50
2023-03-31T01:07:06.318Z,2.10
2023-03-31T01:09:14.191Z,2.45
2023-03-31T01:11:22.788Z,2.35
2023-03-31T01:13:29.322Z,2.30
2023-03-31T01:15:34.676Z,2.03
2023-03-31T01:17:45.065Z,2.65
2023-03-31T01:20:11.755Z,2.40
2023-03-31T01:23:27.978Z,2.85
2023-03-31T01:26:32.515Z,2.38
2023-03-31T01:28:48.456Z,2.20
2023-03-31T01:31:34.328Z,2.50
2023-03-31T01:34:23.589Z,2.10
2023-03-31T01:37:01.615Z,3.55
2023-03-31T01:39:47.852Z,2.22
2023-03-31T01:42:04.172Z,2.30
2023-03-31T01:44:21.270Z,2.20
2023-03-31T01:46:34.502Z,1.88
2023-03-31T01:48:51.067Z,2.97
2023-03-31T01:51:01.065Z,2.53
2023-03-31T01:53:14.653Z,2.28
2023-03-31T01:55:25.580Z,1.65
2023-03-31T01:57:38.657Z,2.42
2023-03-31T01:59:55.702Z,1.90
2023-03-31T02:02:07.373Z,1.80
2023-03-31T02:04:18.233Z,1.80
2023-03-31T02:06:28.933Z,2.05
2023-03-31T02:08:40.944Z,2.65
2023-03-31T02:10:48.574Z,2.00
2023-03-31T02:12:58.448Z,2.60
2023-03-31T02:15:09.503Z,2.42
2023-03-31T02:17:22.019Z,2.45
2023-03-31T02:19:31.275Z,2.03
2023-03-31T02:21:40.826Z,2.17
2023-03-31T02:23:48.929Z,2.65
2023-03-31T02:25:59.849Z,2.55
2023-03-31T02:28:13.482Z,2.25
2023-03-31T02:30:18.767Z,2.72
2023-03-31T02:32:28.054Z,2.85
2023-03-31T02:34:33.430Z,2.22
2023-03-31T02:36:39.595Z,2.72
2023-03-31T02:38:52.487Z,2.35
2023-03-31T02:40:57.556Z,2.58
2023-03-31T02:43:03.210Z,2.42
2023-03-31T02:45:47.602Z,2.40
2023-03-31T02:47:52.812Z,3.13
2023-03-31T02:50:02.916Z,4.18
2023-03-31T02:52:35.932Z,2.95
2023-03-31T02:55:30.794Z,2.50
2023-03-31T02:58:12.540Z,2.78
2023-03-31T03:00:27.180Z,3.08
2023-03-31T03:02:52.729Z,2.50
2023-03-31T03:05:20.535Z,2.80
2023-03-31T03:07:51.814Z,2.40
2023-03-31T03:10:05.593Z,2.88
2023-03-31T03:12:19.747Z,2.75
2023-03-31T03:14:35.125Z,2.83
2023-03-31T03:16:45.631Z,3.83
2023-03-31T03:19:00.709Z,2.80
2023-03-31T03:21:05.911Z,2.53
2023-03-31T03:23:11.013Z,3.90
2023-03-31T03:25:20.884Z,3.00
2023-03-31T03:27:25.950Z,2.78
2023-03-31T03:29:31.888Z,3.25
2023-03-31T03:31:37.048Z,2.88
2023-03-31T03:33:42.221Z,3.17
2023-03-31T03:35:50.073Z,2.75
2023-03-31T03:37:55.405Z,3.08
2023-03-31T03:40:00.993Z,3.25
2023-03-31T03:42:06.793Z,3.95
2023-03-31T03:44:11.835Z,3.33
2023-03-31T03:46:17.495Z,3.30
2023-03-31T03:48:23.107Z,3.40
2023-03-31T03:50:28.578Z,3.30
2023-03-31T03:52:36.296Z,3.70
2023-03-31T03:54:41.698Z,3.38
2023-03-31T03:56:46.770Z,3.38
2023-03-31T03:58:52.108Z,4.13
2023-03-31T04:00:57.828Z,4.50
2023-03-31T04:03:02.876Z,3.40
2023-03-31T04:05:08.730Z,4.25
2023-03-31T04:07:13.798Z,4.43
2023-03-31T04:09:21.435Z,4.30
2023-03-31T04:11:28.527Z,3.50
2023-03-31T04:13:33.589Z,3.75
2023-03-31T04:15:38.854Z,4.22
2023-03-31T04:17:48.836Z,4.30
2023-03-31T04:19:54.122Z,3.85
2023-03-31T04:22:03.238Z,4.03
2023-03-31T04:24:12.848Z,6.53
2023-03-31T04:26:31.268Z,4.93
2023-03-31T04:28:36.338Z,3.70
2023-03-31T04:30:41.667Z,4.03
2023-03-31T04:32:47.235Z,3.95
2023-03-31T04:35:02.808Z,4.22
2023-03-31T04:37:11.247Z,3.90
2023-03-31T04:39:17.704Z,4.20
2023-03-31T04:41:27.602Z,3.85
2023-03-31T04:43:32.813Z,3.55
2023-03-31T04:45:37.918Z,3.67
2023-03-31T04:47:43.692Z,3.60
2023-03-31T04:49:48.764Z,3.47
2023-03-31T04:51:53.857Z,3.35
2023-03-31T04:53:58.893Z,3.00
2023-03-31T04:56:04.270Z,6.00
2023-03-31T04:58:12.454Z,4.40
2023-03-31T05:00:19.209Z,4.15
2023-03-31T05:02:25.638Z,5.07
2023-03-31T05:04:30.855Z,3.45
2023-03-31T05:06:36.439Z,2.38
2023-03-31T05:08:41.881Z,2.50
2023-03-31T05:10:47.423Z,2.28
2023-03-31T05:12:53.066Z,2.63
2023-03-31T05:15:00.860Z,2.25
2023-03-31T05:17:06.278Z,2.65
2023-03-31T05:19:11.805Z,3.53
2023-03-31T05:21:19.872Z,2.50
2023-03-31T05:23:24.917Z,2.10
2023-03-31T05:25:33.076Z,3.40
2023-03-31T05:27:39.351Z,2.28
2023-03-31T05:29:44.410Z,2.22
2023-03-31T05:31:53.438Z,2.47
2023-03-31T05:33:59.075Z,2.78
2023-03-31T05:36:04.454Z,3.28
2023-03-31T05:38:09.872Z,2.78
2023-03-31T05:40:15.834Z,2.83
2023-03-31T05:42:21.298Z,2.60
2023-03-31T05:44:27.653Z,2.80
2023-03-31T05:46:32.743Z,3.40
2023-03-31T05:48:40.500Z,3.95
2023-03-31T05:50:45.553Z,3.53
2023-03-31T05:52:50.832Z,3.25
2023-03-31T05:54:56.353Z,2.30
2023-03-31T05:57:01.437Z,3.28
2023-03-31T05:59:06.766Z,3.33
2023-03-31T06:01:19.724Z,2.65
2023-03-31T06:03:25.178Z,2.92
2023-03-31T06:05:33.518Z,3.92
2023-03-31T06:07:38.652Z,3.10
2023-03-31T06:09:43.685Z,3.30
2023-03-31T06:11:50.432Z,2.55
2023-03-31T06:13:56.246Z,2.65
2023-03-31T06:16:03.404Z,2.80
2023-03-31T06:18:10.876Z,2.75
2023-03-31T06:20:27.110Z,2.80
2023-03-31T06:22:35.937Z,2.78
2023-03-31T06:24:41.073Z,2.88
2023-03-31T06:26:46.083Z,2.38
2023-03-31T06:28:51.716Z,2.80
2023-03-31T06:31:04.648Z,2.78
2023-03-31T06:33:10.034Z,2.80
2023-03-31T06:35:15.546Z,2.85
2023-03-31T06:37:20.600Z,2.83
2023-03-31T06:39:28.770Z,2.50
2023-03-31T06:41:33.806Z,3.05
2023-03-31T06:43:38.914Z,2.83
2023-03-31T06:45:44.569Z,2.60
2023-03-31T06:47:49.704Z,3.15
2023-03-31T06:49:55.306Z,3.22
2023-03-31T06:52:00.348Z,2.55
2023-03-31T06:54:06.398Z,2.28
2023-03-31T06:56:14.540Z,2.38
2023-03-31T06:58:19.668Z,2.40
2023-03-31T07:00:27.587Z,3.00
2023-03-31T07:02:32.970Z,2.60
2023-03-31T07:04:38.246Z,2.05
2023-03-31T07:06:43.313Z,2.72
2023-03-31T07:08:48.330Z,1.95
2023-03-31T07:10:58.267Z,2.17
2023-03-31T07:13:05.990Z,2.10
2023-03-31T07:15:13.117Z,1.60
2023-03-31T07:17:18.212Z,2.22
2023-03-31T07:19:23.334Z,2.22
2023-03-31T07:21:29.341Z,2.10
2023-03-31T07:23:34.376Z,1.83
2023-03-31T07:25:40.089Z,2.45
2023-03-31T07:27:46.342Z,2.47
2023-03-31T07:29:53.953Z,2.20
2023-03-31T07:31:59.348Z,2.33
2023-03-31T07:34:05.081Z,2.05
2023-03-31T07:36:14.148Z,2.22
2023-03-31T07:38:19.536Z,2.15
2023-03-31T07:40:29.855Z,2.28
2023-03-31T07:42:35.744Z,2.33
2023-03-31T07:44:41.486Z,2.53
2023-03-31T07:46:49.300Z,2.63
2023-03-31T07:48:55.375Z,2.33
2023-03-31T07:51:00.422Z,2.83
2023-03-31T07:53:10.852Z,2.70
2023-03-31T07:55:16.781Z,2.90
2023-03-31T07:57:22.877Z,2.75
2023-03-31T07:59:27.949Z,2.20
2023-03-31T08:01:33.534Z,2.47
2023-03-31T08:03:41.721Z,2.55
2023-03-31T08:05:47.048Z,2.25
2023-03-31T08:07:53.327Z,2.45
2023-03-31T08:09:58.764Z,2.58
2023-03-31T08:12:04.217Z,3.35
2023-03-31T08:14:09.258Z,3.05
2023-03-31T08:16:14.643Z,2.95
2023-03-31T08:18:20.183Z,2.80
2023-03-31T08:20:28.085Z,2.75
2023-03-31T08:22:33.333Z,3.00
2023-03-31T08:24:38.348Z,2.90
2023-03-31T08:26:44.656Z,3.10
2023-03-31T08:28:50.875Z,3.05
2023-03-31T08:30:56.318Z,2.97
2023-03-31T08:33:02.251Z,2.47
2023-03-31T08:35:09.793Z,2.80
2023-03-31T08:37:17.426Z,3.58
2023-03-31T08:39:22.489Z,3.95
2023-03-31T08:41:44.927Z,3.10
2023-03-31T08:43:52.175Z,3.40
2023-03-31T08:45:57.690Z,3.72
2023-03-31T08:48:11.438Z,3.95
2023-03-31T08:50:21.873Z,5.95
2023-03-31T08:52:36.029Z,3.80
2023-03-31T08:54:46.595Z,3.72
2023-03-31T08:56:54.646Z,3.47
2023-03-31T08:59:02.385Z,3.13
2023-03-31T09:01:19.900Z,3.50
2023-03-31T09:03:34.661Z,3.80
2023-03-31T09:05:59.664Z,3.13
2023-03-31T09:08:17.573Z,3.75
2023-03-31T09:10:44.080Z,2.70
2023-03-31T09:12:56.074Z,3.47
2023-03-31T09:15:05.300Z,3.40
2023-03-31T09:17:24.057Z,2.30
2023-03-31T09:19:39.929Z,2.95
2023-03-31T09:21:49.705Z,2.20
2023-03-31T09:24:05.063Z,2.55
2023-03-31T09:26:23.484Z,2.50
2023-03-31T09:28:37.851Z,2.90
2023-03-31T09:30:45.114Z,3.50
2023-03-31T09:32:55.267Z,2.85
2023-03-31T09:35:04.632Z,2.88
2023-03-31T09:37:09.759Z,3.80
2023-03-31T09:39:18.774Z,4.55
2023-03-31T09:41:24.026Z,3.72
2023-03-31T09:43:31.922Z,3.25
2023-03-31T09:45:38.396Z,2.72
2023-03-31T09:47:46.864Z,3.28
2023-03-31T09:49:54.348Z,3.00
2023-03-31T09:52:15.399Z,3.35
2023-03-31T09:54:29.891Z,3.85
2023-03-31T09:56:46.912Z,3.03
2023-03-31T09:58:52.522Z,3.22
2023-03-31T10:01:04.735Z,3.75
2023-03-31T10:03:10.672Z,3.15
2023-03-31T10:05:32.299Z,3.30
2023-03-31T10:07:38.036Z,3.10
2023-03-31T10:09:46.534Z,2.88
2023-03-31T10:12:00.914Z,2.83
2023-03-31T10:14:09.669Z,2.60
2023-03-31T10:16:24.209Z,2.92
2023-03-31T10:18:38.329Z,2.88
2023-03-31T10:20:51.460Z,3.38
2023-03-31T10:22:56.780Z,2.53
2023-03-31T10:25:17.532Z,2.80
2023-03-31T10:27:28.213Z,2.40
2023-03-31T10:29:36.447Z,2.42
2023-03-31T10:31:41.938Z,2.53
2023-03-31T10:33:53.565Z,2.50
2023-03-31T10:36:01.244Z,2.72
2023-03-31T10:38:11.969Z,2.35
2023-03-31T10:40:24.974Z,2.40
2023-03-31T10:42:31.598Z,2.30
2023-03-31T10:44:39.983Z,2.90
2023-03-31T10:46:49.946Z,2.15
2023-03-31T10:48:55.701Z,2.05
2023-03-31T10:51:04.331Z,3.20
2023-03-31T10:53:16.260Z,2.70
2023-03-31T10:55:33.666Z,2.58
2023-03-31T10:57:50.153Z,2.63
2023-03-31T11:00:15.836Z,2.47
2023-03-31T11:03:02.892Z,2.25
2023-03-31T11:05:17.194Z,2.70
2023-03-31T11:07:41.195Z,2.88
2023-03-31T11:10:01.786Z,2.63
2023-03-31T11:12:22.397Z,2.47
2023-03-31T11:14:41.174Z,2.25
2023-03-31T11:16:52.783Z,2.40
2023-03-31T11:19:14.504Z,2.70
2023-03-31T11:21:27.194Z,1.92
2023-03-31T11:23:44.085Z,2.15
2023-03-31T11:26:00.460Z,2.40
2023-03-31T11:28:29.362Z,2.60
2023-03-31T11:30:41.263Z,2.88
2023-03-31T11:33:01.978Z,3.25
2023-03-31T11:35:45.293Z,2.42
2023-03-31T11:38:11.695Z,1.85
2023-03-31T11:40:37.948Z,1.55
2023-03-31T11:42:52.344Z,1.38
2023-03-31T11:45:05.830Z,2.78
2023-03-31T11:47:16.838Z,1.58
2023-03-31T11:49:27.253Z,1.30
2023-03-31T11:51:39.560Z,1.08
2023-03-31T11:53:47.928Z,1.30
2023-03-31T11:55:57.939Z,1.00
2023-03-31T11:58:08.910Z,1.05
2023-03-31T12:00:24.231Z,1.40
2023-03-31T12:02:42.461Z,0.88
2023-03-31T12:04:51.014Z,0.82
2023-03-31T12:07:02.457Z,1.15
2023-03-31T12:09:18.542Z,0.93
2023-03-31T12:11:32.061Z,1.08
2023-03-31T12:13:51.353Z,1.20
2023-03-31T12:16:07.189Z,1.00
2023-03-31T12:18:18.918Z,1.30
2023-03-31T12:20:33.340Z,1.15
2023-03-31T12:22:43.297Z,1.20
2023-03-31T12:24:49.336Z,1.25
2023-03-31T12:27:06.245Z,1.75
2023-03-31T12:29:24.793Z,1.88
2023-03-31T12:31:35.604Z,1.20
2023-03-31T12:33:45.830Z,1.20
2023-03-31T12:36:08.218Z,1.20
2023-03-31T12:38:28.640Z,1.00
2023-03-31T12:40:45.722Z,1.30
2023-03-31T12:43:07.203Z,1.10
2023-03-31T12:45:28.004Z,1.35
2023-03-31T12:48:02.803Z,1.40
2023-03-31T12:50:39.576Z,1.90
2023-03-31T12:52:52.462Z,1.90
2023-03-31T12:55:34.446Z,2.78
2023-03-31T12:57:39.498Z,2.28
2023-03-31T12:59:45.967Z,1.80
2023-03-31T13:02:24.462Z,1.85
2023-03-31T13:04:33.922Z,1.52
2023-03-31T13:07:03.811Z,1.40
2023-03-31T13:09:30.229Z,1.35
2023-03-31T13:11:43.306Z,1.40
2023-03-31T13:16:24.092Z,1.60
2023-03-31T13:18:36.792Z,2.38
2023-03-31T13:20:46.305Z,1.73
2023-03-31T13:22:52.890Z,1.80
2023-03-31T13:25:17.958Z,1.92
2023-03-31T13:27:36.521Z,1.85
2023-03-31T13:29:45.167Z,1.80
2023-03-31T13:32:11.566Z,1.92
2023-03-31T13:34:16.974Z,1.98
2023-03-31T13:37:11.842Z,1.98
2023-03-31T13:40:02.050Z,2.08
2023-03-31T13:42:33.309Z,2.30
2023-03-31T13:45:00.162Z,2.20
2023-03-31T13:47:40.228Z,2.20
2023-03-31T13:50:04.122Z,2.10
2023-03-31T13:52:16.486Z,2.55
2023-03-31T13:55:10.125Z,2.00
2023-03-31T13:57:56.849Z,2.25
2023-03-31T14:00:24.106Z,2.25
2023-03-31T14:02:48.776Z,3.17
2023-03-31T14:05:23.772Z,2.10
2023-03-31T14:07:39.784Z,1.70
2023-03-31T14:09:50.008Z,1.90
2023-03-31T14:11:56.739Z,1.50
2023-03-31T14:14:07.630Z,1.50
2023-03-31T14:16:13.633Z,1.67
2023-03-31T14:18:24.349Z,1.77
2023-03-31T14:20:43.424Z,1.58
2023-03-31T14:23:02.739Z,1.50
2023-03-31T14:25:18.067Z,1.42
2023-03-31T14:27:41.773Z,1.65
2023-03-31T14:29:54.326Z,2.25
2023-03-31T14:32:09.995Z,1.98
2023-03-31T14:34:48.177Z,2.40
2023-03-31T14:37:01.842Z,1.60
2023-03-31T14:39:14.830Z,2.88
2023-03-31T14:41:29.956Z,2.10
2023-03-31T14:43:38.027Z,1.73
2023-03-31T14:45:46.265Z,2.95
2023-03-31T14:48:00.850Z,2.33
2023-03-31T14:50:16.205Z,2.33
2023-03-31T14:52:24.601Z,1.80
2023-03-31T14:54:41.539Z,2.30
2023-03-31T14:56:48.920Z,2.35
2023-03-31T14:58:57.071Z,2.42
2023-03-31T15:01:03.717Z,3.08
2023-03-31T15:03:14.153Z,3.97
2023-03-31T15:05:31.297Z,2.13
2023-03-31T15:07:37.626Z,3.13
2023-03-31T15:09:52.299Z,2.15
2023-03-31T15:12:01.593Z,2.30
2023-03-31T15:14:07.032Z,1.90
2023-03-31T15:16:35.151Z,1.80
2023-03-31T15:18:44.586Z,1.83
2023-03-31T15:20:50.133Z,2.17
2023-03-31T15:22:55.384Z,1.90
2023-03-31T15:25:03.313Z,1.88
2023-03-31T15:27:14.891Z,1.67
2023-03-31T15:31:30.899Z,1.92
2023-03-31T15:33:42.162Z,1.38
2023-03-31T15:35:47.940Z,1.30
2023-03-31T15:37:57.049Z,1.25
2023-03-31T15:40:09.556Z,1.65
2023-03-31T15:42:14.676Z,1.15
2023-03-31T15:44:40.654Z,1.50
2023-03-31T15:47:03.199Z,1.88
2023-03-31T15:49:22.522Z,1.20
2023-03-31T15:51:32.947Z,2.95
2023-03-31T15:53:48.433Z,2.20
2023-03-31T15:56:00.290Z,1.58
2023-03-31T15:58:05.674Z,1.10
2023-03-31T16:02:58.052Z,1.10
2023-03-31T16:05:08.077Z,1.40
2023-03-31T16:07:24.062Z,1.95
2023-03-31T16:09:40.754Z,1.40
2023-03-31T16:11:52.669Z,1.27
2023-03-31T16:14:03.672Z,1.63
2023-03-31T16:16:11.875Z,2.47
2023-03-31T16:18:20.842Z,1.17
2023-03-31T16:20:29.524Z,1.38
2023-03-31T16:22:41.813Z,4.32
2023-03-31T16:24:47.065Z,1.10
2023-03-31T16:26:54.954Z,1.25
2023-03-31T16:29:00.750Z,1.45
2023-03-31T16:31:07.985Z,1.30
2023-03-31T16:33:16.152Z,1.63
2023-03-31T16:35:21.270Z,1.13
2023-03-31T16:37:27.878Z,1.17
2023-03-31T16:39:32.938Z,2.17
2023-03-31T16:41:40.356Z,1.33
2023-03-31T16:43:49.699Z,1.20
2023-03-31T16:45:57.344Z,0.98
2023-03-31T16:48:15.011Z,1.98
2023-03-31T16:50:21.574Z,1.20
2023-03-31T16:52:26.765Z,1.30
2023-03-31T16:54:31.821Z,1.45
2023-03-31T16:56:37.007Z,1.52
2023-03-31T16:58:43.052Z,1.17
2023-03-31T17:00:50.879Z,1.25
2023-03-31T17:02:56.052Z,0.90
2023-03-31T17:05:12.606Z,1.50
2023-03-31T17:07:18.576Z,1.17
2023-03-31T17:09:23.725Z,1.30
2023-03-31T17:11:32.439Z,1.23
2023-03-31T17:13:40.224Z,1.38
2023-03-31T17:15:45.387Z,1.20
2023-03-31T17:17:53.097Z,1.02
2023-03-31T17:19:59.430Z,4.18
2023-03-31T17:22:04.514Z,5.88
2023-03-31T17:24:10.821Z,1.88
2023-03-31T17:26:16.430Z,1.52
2023-03-31T17:28:21.822Z,1.38
2023-03-31T17:30:27.682Z,1.48
2023-03-31T17:32:32.749Z,1.60
2023-03-31T17:34:41.839Z,1.90
2023-03-31T17:36:47.666Z,1.67
2023-03-31T17:38:52.929Z,1.88
2023-03-31T17:40:57.993Z,2.40
2023-03-31T17:43:03.229Z,3.55
2023-03-31T17:45:11.877Z,2.78
2023-03-31T17:47:16.887Z,2.42
2023-03-31T17:49:22.027Z,2.38
2023-03-31T17:51:32.796Z,2.50
2023-03-31T17:53:38.362Z,2.15
2023-03-31T17:55:43.579Z,3.10
2023-03-31T17:57:48.833Z,2.35
2023-03-31T17:59:54.131Z,2.45
2023-03-31T18:01:59.346Z,3.45
2023-03-31T18:04:04.438Z,2.58
2023-03-31T18:06:11.894Z,2.30
2023-03-31T18:08:19.622Z,3.10
2023-03-31T18:10:25.907Z,2.25
2023-03-31T18:12:30.966Z,2.50
2023-03-31T18:14:36.810Z,2.47
2023-03-31T18:16:42.737Z,2.58
2023-03-31T18:18:48.446Z,2.45
2023-03-31T18:20:53.531Z,2.25
2023-03-31T18:22:58.811Z,2.35
2023-03-31T18:25:08.842Z,2.90
2023-03-31T18:27:13.885Z,2.13
2023-03-31T18:29:19.116Z,1.80
2023-03-31T18:31:27.059Z,1.85
2023-03-31T18:33:32.526Z,2.25
2023-03-31T18:35:38.172Z,3.47
2023-03-31T18:37:43.952Z,2.53
2023-03-31T18:39:49.018Z,2.92
2023-03-31T18:41:58.466Z,2.75
2023-03-31T18:44:03.719Z,3.13
2023-03-31T18:46:10.983Z,2.75
2023-03-31T18:48:17.982Z,2.70
2023-03-31T18:50:23.748Z,2.63
2023-03-31T18:52:28.766Z,2.75
2023-03-31T18:54:34.071Z,2.80
2023-03-31T18:56:39.369Z,2.50
2023-03-31T18:58:47.336Z,2.65
2023-03-31T19:00:53.104Z,2.92
2023-03-31T19:02:58.314Z,2.90
2023-03-31T19:05:03.939Z,3.25
2023-03-31T19:07:09.015Z,2.83
2023-03-31T19:09:14.286Z,3.42
2023-03-31T19:11:20.506Z,3.78
2023-03-31T19:13:25.585Z,2.92
2023-03-31T19:15:34.159Z,3.22
2023-03-31T19:17:39.206Z,3.33
2023-03-31T19:19:45.372Z,3.25
2023-03-31T19:21:52.483Z,3.50
2023-03-31T19:23:57.524Z,3.00
2023-03-31T19:26:03.396Z,3.28
2023-03-31T19:28:09.346Z,3.70
2023-03-31T19:30:20.668Z,2.80
2023-03-31T19:32:28.271Z,3.50
2023-03-31T19:34:33.929Z,3.40
2023-03-31T19:36:40.099Z,3.13
2023-03-31T19:38:45.337Z,3.85
2023-03-31T19:40:52.059Z,3.03
2023-03-31T19:42:57.099Z,3.40
2023-03-31T19:45:02.223Z,3.17
2023-03-31T19:47:08.099Z,3.50
2023-03-31T19:49:16.190Z,2.92
2023-03-31T19:51:21.988Z,4.03
2023-03-31T19:53:27.430Z,2.92
2023-03-31T19:55:34.388Z,2.80
2023-03-31T19:57:39.991Z,3.22
2023-03-31T19:59:45.237Z,2.90
2023-03-31T20:01:50.923Z,2.63
2023-03-31T20:03:56.705Z,2.90
2023-03-31T20:06:10.244Z,2.90
2023-03-31T20:08:15.417Z,2.85
2023-03-31T20:10:21.389Z,3.35
2023-03-31T20:12:27.089Z,4.30
2023-03-31T20:14:32.115Z,2.97
2023-03-31T20:16:37.207Z,2.90
2023-03-31T20:18:48.146Z,2.60
2023-03-31T20:20:53.283Z,2.80
2023-03-31T20:23:01.710Z,4.63
2023-03-31T20:25:07.918Z,2.25
2023-03-31T20:27:12.947Z,2.80
2023-03-31T20:29:18.155Z,2.10
2023-03-31T20:31:27.802Z,2.65
2023-03-31T20:33:32.878Z,2.30
2023-03-31T20:35:37.975Z,2.35
2023-03-31T20:37:42.997Z,2.20
2023-03-31T20:39:51.367Z,2.10
2023-03-31T20:41:56.684Z,2.03
2023-03-31T20:44:02.943Z,1.65
2023-03-31T20:46:11.012Z,4.47
2023-03-31T20:48:16.704Z,1.88
2023-03-31T20:50:23.092Z,2.17
2023-03-31T20:52:28.365Z,2.78
2023-03-31T20:54:33.511Z,2.20
2023-03-31T20:56:44.758Z,2.10
2023-03-31T20:58:50.956Z,3.75
2023-03-31T21:01:01.027Z,2.00
2023-03-31T21:03:06.904Z,2.15
2023-03-31T21:05:12.742Z,1.77
2023-03-31T21:07:17.845Z,2.50
2023-03-31T21:09:24.121Z,2.45
2023-03-31T21:11:29.915Z,3.75
2023-03-31T21:13:38.124Z,1.90
2023-03-31T21:15:43.906Z,2.25
2023-03-31T21:17:49.294Z,2.35
2023-03-31T21:19:54.329Z,2.00
2023-03-31T21:21:59.395Z,2.22
2023-03-31T21:24:04.773Z,2.40
2023-03-31T21:26:12.363Z,2.47
2023-03-31T21:28:20.197Z,2.35
2023-03-31T21:30:28.333Z,1.98
2023-03-31T21:32:33.696Z,2.38
2023-03-31T21:34:38.732Z,1.80
2023-03-31T21:36:44.058Z,1.77
2023-03-31T21:38:50.399Z,1.88
2023-03-31T21:40:55.997Z,1.77
2023-03-31T21:43:01.215Z,1.80
2023-03-31T21:45:06.870Z,2.03
2023-03-31T21:47:14.987Z,1.88
2023-03-31T21:49:20.025Z,1.80
2023-03-31T21:51:27.115Z,1.85
2023-03-31T21:53:34.438Z,2.40
2023-03-31T21:55:40.898Z,2.78
2023-03-31T21:57:46.293Z,1.55
2023-03-31T21:59:51.330Z,2.45
2023-03-31T22:01:57.642Z,1.92
2023-03-31T22:04:06.275Z,1.83
2023-03-31T22:06:12.651Z,2.58
2023-03-31T22:08:18.059Z,2.30
2023-03-31T22:10:23.284Z,1.95
2023-03-31T22:12:28.819Z,1.38
2023-03-31T22:14:34.338Z,1.88
2023-03-31T22:16:39.367Z,1.40
2023-03-31T22:18:45.119Z,2.10
2023-03-31T22:20:53.317Z,1.80
2023-03-31T22:22:58.328Z,2.72
2023-03-31T22:25:03.903Z,1.58
2023-03-31T22:27:09.199Z,1.77
2023-03-31T22:29:18.462Z,1.67
2023-03-31T22:31:23.874Z,1.52
2023-03-31T22:33:28.932Z,2.05
2023-03-31T22:35:34.295Z,1.55
2023-03-31T22:37:42.580Z,1.45
2023-03-31T22:39:48.002Z,1.75
2023-03-31T22:41:53.298Z,1.77
2023-03-31T22:43:58.322Z,1.77
2023-03-31T22:46:07.132Z,1.80
2023-03-31T22:48:13.984Z,1.50
2023-03-31T22:50:19.802Z,1.80
2023-03-31T22:52:25.206Z,1.58
2023-03-31T22:54:33.811Z,2.50
2023-03-31T22:56:38.816Z,2.00
2023-03-31T22:58:43.990Z,1.52
2023-03-31T23:00:57.441Z,1.95
2023-03-31T23:03:02.938Z,2.17
2023-03-31T23:05:09.634Z,1.98
2023-03-31T23:07:16.000Z,1.67
2023-03-31T23:09:21.441Z,1.80
2023-03-31T23:11:29.283Z,2.30
2023-03-31T23:13:34.686Z,2.55
2023-03-31T23:15:41.381Z,1.85
2023-03-31T23:17:46.480Z,1.65
2023-03-31T23:19:52.008Z,2.30
2023-03-31T23:21:58.499Z,1.90
2023-03-31T23:24:05.769Z,1.92
2023-03-31T23:26:13.549Z,2.00
2023-03-31T23:28:21.825Z,1.80
2023-03-31T23:30:27.452Z,1.80
2023-03-31T23:32:32.495Z,1.95
2023-03-31T23:34:41.661Z,1.92
2023-03-31T23:36:47.108Z,2.15
2023-03-31T23:38:54.449Z,1.80
2023-03-31T23:40:59.925Z,2.30
2023-03-31T23:43:04.960Z,2.30
2023-03-31T23:45:14.530Z,2.10
2023-03-31T23:47:19.585Z,2.17
2023-03-31T23:49:24.833Z,2.13
2023-03-31T23:51:30.121Z,2.72
2023-03-31T23:53:35.995Z,2.08
2023-03-31T23:55:41.873Z,2.40
2023-03-31T23:57:47.286Z,2.75
2023-03-31T23:59:52.821Z,2.35
